createdAt,value
2023-06-03T00:02:27.138Z,102146.97
2023-06-03T00:05:02.500Z,102151.38
2023-06-03T00:07:32.760Z,102150.59
2023-06-03T00:10:03.384Z,102151.09
2023-06-03T00:12:33.445Z,102141.97
2023-06-03T00:15:03.550Z,102146.91
2023-06-03T00:17:34.981Z,102137.91
2023-06-03T00:20:11.004Z,102140.69
2023-06-03T00:22:41.980Z,102140.41
2023-06-03T00:25:13.327Z,102143.03
2023-06-03T00:27:44.882Z,102140.41
2023-06-03T00:30:16.054Z,102143.81
2023-06-03T00:32:48.067Z,102145.44
2023-06-03T00:35:20.639Z,102149.38
2023-06-03T00:37:50.677Z,102146.47
2023-06-03T00:40:21.119Z,102142.56
2023-06-03T00:42:51.294Z,102145.34
2023-06-03T00:45:21.839Z,102152.22
2023-06-03T00:47:52.258Z,102154.03
2023-06-03T00:50:25.266Z,102160.94
2023-06-03T00:52:56.075Z,102165.34
2023-06-03T00:55:26.419Z,102167.38
2023-06-03T00:57:56.629Z,102172.31
2023-06-03T01:00:26.819Z,102174.94
2023-06-03T01:02:57.590Z,102171.03
2023-06-03T01:05:30.453Z,102162.72
2023-06-03T01:08:10.439Z,102170.84
2023-06-03T01:10:45.140Z,102174.94
2023-06-03T01:13:19.221Z,102164.75
2023-06-03T01:15:52.137Z,102165.19
2023-06-03T01:18:22.454Z,102177.03
2023-06-03T01:21:01.501Z,102171.63
2023-06-03T01:23:37.950Z,102167.88
2023-06-03T01:26:08.572Z,102173.69
2023-06-03T01:28:38.750Z,102172.88
2023-06-03T01:31:10.167Z,102173.69
2023-06-03T01:33:41.107Z,102173.63
2023-06-03T01:36:11.711Z,102175.28
2023-06-03T01:38:44.451Z,102175.34
2023-06-03T01:41:14.590Z,102179.63
2023-06-03T01:43:44.794Z,102177.16
2023-06-03T01:46:15.221Z,102171.66
2023-06-03T01:48:45.441Z,102172.88
2023-06-03T01:51:15.443Z,102178.56
2023-06-03T01:53:48.187Z,102188.03
2023-06-03T01:56:18.230Z,102179.94
2023-06-03T01:58:48.767Z,102184.97
2023-06-03T02:01:19.192Z,102179.72
2023-06-03T02:03:49.729Z,102188.66
2023-06-03T02:06:19.884Z,102182.50
2023-06-03T02:08:52.676Z,102186.78
2023-06-03T02:11:22.953Z,102185.06
2023-06-03T02:13:52.988Z,102183.44
2023-06-03T02:16:23.315Z,102183.59
2023-06-03T02:18:54.774Z,102178.19
2023-06-03T02:21:25.103Z,102174.75
2023-06-03T02:23:58.027Z,102174.81
2023-06-03T02:26:28.183Z,102179.97
2023-06-03T02:28:58.609Z,102177.22
2023-06-03T02:31:28.616Z,102180.88
2023-06-03T02:33:58.569Z,102187.72
2023-06-03T02:36:28.631Z,102186.09
2023-06-03T02:39:01.132Z,102187.56
2023-06-03T02:41:31.449Z,102180.13
2023-06-03T02:44:01.452Z,102182.53
2023-06-03T02:46:31.434Z,102183.19
2023-06-03T02:49:01.907Z,102185.41
2023-06-03T02:51:31.912Z,102184.22
2023-06-03T02:54:04.481Z,102191.72
2023-06-03T02:56:34.665Z,102191.56
2023-06-03T02:59:04.612Z,102189.59
2023-06-03T03:01:34.931Z,102183.53
2023-06-03T03:04:05.191Z,102192.09
2023-06-03T03:06:38.642Z,102192.22
2023-06-03T03:09:11.506Z,102192.00
2023-06-03T03:11:46.332Z,102192.78
2023-06-03T03:14:18.144Z,102189.41
2023-06-03T03:16:49.360Z,102186.78
2023-06-03T03:19:19.731Z,102191.56
2023-06-03T03:21:49.808Z,102194.00
2023-06-03T03:24:31.981Z,102199.22
2023-06-03T03:27:02.294Z,102200.84
2023-06-03T03:29:35.330Z,102199.22
2023-06-03T03:32:11.121Z,102198.16
2023-06-03T03:34:48.099Z,102195.63
2023-06-03T03:37:18.056Z,102190.38
2023-06-03T03:39:52.454Z,102193.84
2023-06-03T03:42:22.931Z,102195.38
2023-06-03T03:44:53.757Z,102198.06
2023-06-03T03:47:25.222Z,102200.50
2023-06-03T03:49:55.418Z,102198.88
2023-06-03T03:52:34.087Z,102201.50
2023-06-03T03:55:08.188Z,102212.03
2023-06-03T03:57:40.478Z,102208.63
2023-06-03T04:00:12.433Z,102204.91
2023-06-03T04:02:46.125Z,102212.69
2023-06-03T04:05:17.719Z,102205.72
2023-06-03T04:07:49.556Z,102206.63
2023-06-03T04:10:24.810Z,102205.50
2023-06-03T04:12:54.672Z,102209.19
2023-06-03T04:15:31.639Z,102203.94
2023-06-03T04:18:01.799Z,102203.78
2023-06-03T04:20:45.878Z,102214.22
2023-06-03T04:23:18.222Z,102206.28
2023-06-03T04:25:54.968Z,102215.84
2023-06-03T04:28:26.168Z,102211.50
2023-06-03T04:30:56.640Z,102210.78
2023-06-03T04:33:26.552Z,102206.47
2023-06-03T04:35:57.402Z,102208.19
2023-06-03T04:38:27.807Z,102208.28
2023-06-03T04:41:03.088Z,102205.84
2023-06-03T04:43:35.156Z,102211.31
2023-06-03T04:46:06.774Z,102207.06
2023-06-03T04:48:37.781Z,102208.06
2023-06-03T04:51:09.234Z,102213.63
2023-06-03T04:53:40.363Z,102211.06
2023-06-03T04:56:14.399Z,102215.56
2023-06-03T04:58:45.278Z,102211.41
2023-06-03T05:01:22.701Z,102212.47
2023-06-03T05:03:52.832Z,102204.78
2023-06-03T05:06:24.876Z,102210.13
2023-06-03T05:08:55.211Z,102207.59
2023-06-03T05:11:27.843Z,102209.59
2023-06-03T05:13:57.931Z,102211.47
2023-06-03T05:16:27.994Z,102205.59
2023-06-03T05:18:58.000Z,102197.06
2023-06-03T05:21:28.293Z,102199.63
2023-06-03T05:23:59.572Z,102201.72
2023-06-03T05:26:32.275Z,102210.56
2023-06-03T05:29:02.363Z,102208.28
2023-06-03T05:31:32.651Z,102210.38
2023-06-03T05:34:03.232Z,102204.84
2023-06-03T05:36:33.393Z,102211.28
2023-06-03T05:39:05.492Z,102213.47
2023-06-03T05:41:40.054Z,102211.19
2023-06-03T05:44:11.389Z,102207.22
2023-06-03T05:46:41.460Z,102207.47
2023-06-03T05:49:11.465Z,102207.03
2023-06-03T05:51:41.638Z,102208.22
2023-06-03T05:54:11.572Z,102212.13
2023-06-03T05:56:44.192Z,102215.22
2023-06-03T05:59:14.174Z,102209.44
2023-06-03T06:01:46.778Z,102209.88
2023-06-03T06:04:16.738Z,102213.75
2023-06-03T06:06:47.257Z,102209.69
2023-06-03T06:09:17.471Z,102211.16
2023-06-03T06:11:50.142Z,102217.00
2023-06-03T06:14:20.128Z,102209.41
2023-06-03T06:16:50.961Z,102202.81
2023-06-03T06:19:21.522Z,102214.50
2023-06-03T06:21:52.471Z,102197.47
2023-06-03T06:24:23.028Z,102200.78
2023-06-03T06:26:55.937Z,102202.31
2023-06-03T06:29:25.945Z,102206.03
2023-06-03T06:31:56.071Z,102203.06
2023-06-03T06:34:31.172Z,102208.22
2023-06-03T06:37:02.771Z,102206.94
2023-06-03T06:39:53.668Z,102208.13
2023-06-03T06:42:46.447Z,102212.59
2023-06-03T06:45:29.530Z,102217.53
2023-06-03T06:48:07.763Z,102206.81
2023-06-03T06:50:50.689Z,102211.44
2023-06-03T06:53:23.226Z,102204.66
2023-06-03T06:55:58.473Z,102206.03
2023-06-03T06:58:57.199Z,102201.31
2023-06-03T07:01:27.309Z,102206.75
2023-06-03T07:03:59.576Z,102204.66
2023-06-03T07:06:31.232Z,102202.03
2023-06-03T07:09:06.135Z,102199.59
2023-06-03T07:11:40.724Z,102198.94
2023-06-03T07:14:13.329Z,102187.06
2023-06-03T07:16:45.263Z,102191.78
2023-06-03T07:19:16.685Z,102194.81
2023-06-03T07:21:51.520Z,102197.06
2023-06-03T07:24:21.804Z,102185.84
2023-06-03T07:26:54.096Z,102201.63
2023-06-03T07:29:26.933Z,102188.53
2023-06-03T07:31:57.234Z,102201.81
2023-06-03T07:34:27.239Z,102195.81
2023-06-03T07:37:05.300Z,102192.50
2023-06-03T07:39:39.270Z,102202.38
2023-06-03T07:42:18.955Z,102195.75
2023-06-03T07:44:57.222Z,102199.59
2023-06-03T07:47:29.291Z,102202.56
2023-06-03T07:50:00.909Z,102192.34
2023-06-03T07:52:32.450Z,102194.44
2023-06-03T07:55:02.410Z,102197.22
2023-06-03T07:57:32.489Z,102191.69
2023-06-03T08:00:05.630Z,102191.22
2023-06-03T08:02:42.630Z,102189.00
2023-06-03T08:05:12.954Z,102187.72
2023-06-03T08:07:47.246Z,102187.03
2023-06-03T08:10:28.299Z,102193.81
2023-06-03T08:12:58.384Z,102192.41
2023-06-03T08:15:36.529Z,102182.66
2023-06-03T08:18:08.628Z,102193.69
2023-06-03T08:20:40.266Z,102196.84
2023-06-03T08:23:11.088Z,102200.94
2023-06-03T08:25:40.979Z,102195.53
2023-06-03T08:28:11.160Z,102190.03
2023-06-03T08:31:00.091Z,102197.53
2023-06-03T08:33:42.598Z,102191.59
2023-06-03T08:36:26.599Z,102192.97
2023-06-03T08:39:22.061Z,102200.59
2023-06-03T08:45:27.533Z,102187.59
2023-06-03T08:48:10.656Z,102188.91
2023-06-03T08:50:45.536Z,102187.44
2023-06-03T08:53:15.862Z,102185.97
2023-06-03T08:55:49.785Z,102186.22
2023-06-03T08:58:32.922Z,102179.34
2023-06-03T09:01:05.449Z,102179.50
2023-06-03T09:03:38.539Z,102178.53
2023-06-03T09:06:08.982Z,102191.97
2023-06-03T09:08:39.947Z,102185.88
2023-06-03T09:11:11.410Z,102186.69
2023-06-03T09:17:29.606Z,102174.56
2023-06-03T09:20:06.534Z,102178.16
2023-06-03T09:22:58.672Z,102171.94
2023-06-03T09:25:45.629Z,102172.84
2023-06-03T09:28:50.141Z,102157.72
2023-06-03T09:31:41.225Z,102163.06
2023-06-03T09:34:31.813Z,102165.75
2023-06-03T09:40:48.845Z,102162.13
2023-06-03T09:46:48.174Z,102154.97
2023-06-03T09:49:37.901Z,102162.09
2023-06-03T09:53:01.517Z,102169.13
2023-06-03T09:55:54.543Z,102167.25
2023-06-03T09:59:03.320Z,102170.94
2023-06-03T10:01:35.707Z,102170.88
2023-06-03T10:04:05.648Z,102168.97
2023-06-03T10:06:36.881Z,102160.84
2023-06-03T10:09:21.472Z,102165.22
2023-06-03T10:11:55.192Z,102159.06
2023-06-03T10:14:27.470Z,102155.47
2023-06-03T10:17:11.013Z,102150.06
2023-06-03T10:19:42.909Z,102158.09
2023-06-03T10:22:14.288Z,102161.69
2023-06-03T10:24:46.426Z,102152.81
2023-06-03T10:27:20.807Z,102153.66
2023-06-03T10:29:52.192Z,102154.56
2023-06-03T10:32:23.785Z,102151.84
2023-06-03T10:34:54.092Z,102154.34
2023-06-03T10:37:24.055Z,102150.09
2023-06-03T10:39:53.945Z,102152.94
2023-06-03T10:42:27.117Z,102154.69
2023-06-03T10:44:57.015Z,102157.47
2023-06-03T10:47:29.371Z,102150.22
2023-06-03T10:50:03.997Z,102145.63
2023-06-03T10:52:54.816Z,102140.22
2023-06-03T10:55:33.878Z,102150.09
2023-06-03T10:58:11.781Z,102138.41
2023-06-03T11:01:00.625Z,102141.00
2023-06-03T11:03:32.169Z,102139.31
2023-06-03T11:06:44.260Z,102133.94
2023-06-03T11:09:17.961Z,102141.97
2023-06-03T11:12:11.151Z,102143.81
2023-06-03T11:14:59.205Z,102143.81
2023-06-03T11:17:30.178Z,102133.09
2023-06-03T11:20:01.699Z,102125.75
2023-06-03T11:22:45.381Z,102133.03
2023-06-03T11:25:31.715Z,102131.94
2023-06-03T11:28:39.916Z,102124.56
2023-06-03T11:31:12.423Z,102120.09
2023-06-03T11:33:42.262Z,102124.63
2023-06-03T11:36:42.147Z,102122.94
2023-06-03T11:39:12.049Z,102114.75
2023-06-03T11:42:03.195Z,102112.91
2023-06-03T11:44:35.497Z,102120.09
2023-06-03T11:47:08.995Z,102115.06
2023-06-03T11:49:40.250Z,102124.78
2023-06-03T11:52:11.751Z,102119.50
2023-06-03T11:54:42.878Z,102107.06
2023-06-03T11:57:14.779Z,102111.34
2023-06-03T11:59:46.075Z,102104.56
2023-06-03T12:02:18.935Z,102110.16
2023-06-03T12:04:50.061Z,102111.97
2023-06-03T12:07:20.072Z,102106.72
2023-06-03T12:09:49.924Z,102103.84
2023-06-03T12:12:19.922Z,102097.53
2023-06-03T12:14:49.847Z,102093.88
2023-06-03T12:17:23.547Z,102094.53
2023-06-03T12:19:55.370Z,102096.31
2023-06-03T12:22:26.640Z,102093.69
2023-06-03T12:24:57.236Z,102086.47
2023-06-03T12:27:28.615Z,102080.50
2023-06-03T12:29:59.253Z,102083.13
2023-06-03T12:32:32.958Z,102077.78
2023-06-03T12:35:13.927Z,102073.13
2023-06-03T12:37:43.812Z,102070.38
2023-06-03T12:40:14.441Z,102076.53
2023-06-03T12:42:46.029Z,102070.16
2023-06-03T12:45:15.908Z,102071.06
2023-06-03T12:47:50.475Z,102074.47
2023-06-03T12:50:21.693Z,102061.25
2023-06-03T12:52:51.999Z,102060.28
2023-06-03T12:55:22.235Z,102063.06
2023-06-03T12:57:52.032Z,102059.38
2023-06-03T13:00:23.702Z,102061.97
2023-06-03T13:02:58.370Z,102054.28
2023-06-03T13:05:28.240Z,102051.59
2023-06-03T13:07:58.115Z,102055.94
2023-06-03T13:10:27.998Z,102048.84
2023-06-03T13:12:58.444Z,102049.72
2023-06-03T13:15:28.796Z,102040.69
2023-06-03T13:18:01.385Z,102046.94
2023-06-03T13:20:32.497Z,102033.53
2023-06-03T13:23:02.759Z,102030.22
2023-06-03T13:25:32.726Z,102031.22
2023-06-03T13:28:03.098Z,102032.94
2023-06-03T13:30:33.281Z,102029.41
2023-06-03T13:33:05.932Z,102025.78
2023-06-03T13:35:36.248Z,102027.41
2023-06-03T13:38:06.560Z,102027.50
2023-06-03T13:40:36.809Z,102031.19
2023-06-03T13:43:06.725Z,102020.91
2023-06-03T13:45:36.971Z,102025.31
2023-06-03T13:48:09.737Z,102025.31
2023-06-03T13:50:40.087Z,102029.75
2023-06-03T13:53:09.988Z,102025.31
2023-06-03T13:55:40.399Z,102021.69
2023-06-03T13:58:10.592Z,102012.69
2023-06-03T14:00:41.060Z,102008.28
2023-06-03T14:03:14.227Z,102015.41
2023-06-03T14:05:45.700Z,102006.44
2023-06-03T14:08:15.913Z,102010.00
2023-06-03T14:10:46.033Z,102009.16
2023-06-03T14:13:16.687Z,102007.44
2023-06-03T14:15:47.078Z,102009.34
2023-06-03T14:18:19.875Z,102001.38
2023-06-03T14:20:50.089Z,102003.09
2023-06-03T14:23:20.472Z,102002.97
2023-06-03T14:25:50.932Z,101993.13
2023-06-03T14:28:22.988Z,101992.41
2023-06-03T14:33:29.962Z,101988.97
2023-06-03T14:35:59.795Z,101988.03
2023-06-03T14:38:32.710Z,101994.41
2023-06-03T14:41:02.465Z,101994.47
2023-06-03T14:43:32.178Z,101984.69
2023-06-03T14:46:01.924Z,101983.81
2023-06-03T14:48:34.344Z,101982.94
2023-06-03T14:51:04.365Z,101975.81
2023-06-03T14:53:34.317Z,101977.66
2023-06-03T14:56:04.193Z,101979.47
2023-06-03T14:58:34.038Z,101985.72
2023-06-03T15:01:04.565Z,101982.16
2023-06-03T15:03:36.884Z,101976.88
2023-06-03T15:06:07.036Z,101973.31
2023-06-03T15:08:36.823Z,101969.72
2023-06-03T15:11:06.609Z,101967.94
2023-06-03T15:13:36.352Z,101959.06
2023-06-03T15:16:06.559Z,101963.47
2023-06-03T15:18:39.358Z,101962.59
2023-06-03T15:21:09.208Z,101959.84
2023-06-03T15:23:39.093Z,101958.16
2023-06-03T15:26:09.347Z,101957.31
2023-06-03T15:28:38.963Z,101958.19
2023-06-03T15:31:08.725Z,101958.97
2023-06-03T15:33:41.019Z,101955.44
2023-06-03T15:36:11.240Z,101948.19
2023-06-03T15:38:41.186Z,101949.09
2023-06-03T15:41:10.968Z,101942.19
2023-06-03T15:43:40.755Z,101944.94
2023-06-03T15:46:10.442Z,101944.06
2023-06-03T15:48:42.716Z,101938.72
2023-06-03T15:51:12.381Z,101945.81
2023-06-03T15:53:42.280Z,101936.03
2023-06-03T15:56:12.246Z,101928.91
2023-06-03T15:58:41.928Z,101930.69
2023-06-03T16:01:11.980Z,101939.66
2023-06-03T16:03:45.019Z,101932.56
2023-06-03T16:06:14.758Z,101937.94
2023-06-03T16:08:44.623Z,101921.94
2023-06-03T16:11:14.339Z,101929.97
2023-06-03T16:13:44.498Z,101932.66
2023-06-03T16:16:14.346Z,101923.78
2023-06-03T16:18:46.652Z,101928.25
2023-06-03T16:21:16.370Z,101932.66
2023-06-03T16:23:46.129Z,101934.47
2023-06-03T16:26:16.574Z,101927.38
2023-06-03T16:28:46.046Z,101928.28
2023-06-03T16:31:15.810Z,101930.06
2023-06-03T16:33:51.622Z,101918.50
2023-06-03T16:36:21.533Z,101917.63
2023-06-03T16:38:51.221Z,101915.84
2023-06-03T16:41:21.832Z,101915.84
2023-06-03T16:43:51.494Z,101918.50
2023-06-03T16:46:21.234Z,101925.59
2023-06-03T16:48:53.491Z,101921.19
2023-06-03T16:51:23.614Z,101914.06
2023-06-03T16:53:53.364Z,101922.91
2023-06-03T16:56:23.074Z,101925.56
2023-06-03T16:58:52.759Z,101923.78
2023-06-03T17:01:22.779Z,101925.56
2023-06-03T17:03:56.522Z,101922.03
2023-06-03T17:06:26.309Z,101917.56
2023-06-03T17:08:56.775Z,101919.34
2023-06-03T17:11:26.670Z,101920.25
2023-06-03T17:13:59.695Z,101916.69
2023-06-03T17:16:29.385Z,101908.69
2023-06-03T17:19:02.049Z,101910.47
2023-06-03T17:21:31.844Z,101902.50
2023-06-03T17:24:01.685Z,101911.34
2023-06-03T17:26:31.439Z,101904.25
2023-06-03T17:29:02.054Z,101913.09
2023-06-03T17:31:32.359Z,101907.78
2023-06-03T17:34:04.848Z,101898.88
2023-06-03T17:36:34.562Z,101911.31
2023-06-03T17:39:04.492Z,101900.66
2023-06-03T17:41:36.556Z,101901.53
2023-06-03T17:44:07.410Z,101903.34
2023-06-03T17:46:37.132Z,101901.53
2023-06-03T17:49:09.400Z,101898.81
2023-06-03T17:51:39.892Z,101908.56
2023-06-03T17:54:09.638Z,101901.47
2023-06-03T17:56:39.374Z,101899.66
2023-06-03T17:59:09.926Z,101899.69
2023-06-03T18:01:40.447Z,101904.09
2023-06-03T18:04:13.260Z,101898.72
2023-06-03T18:06:43.155Z,101907.59
2023-06-03T18:09:12.856Z,101904.06
2023-06-03T18:11:42.562Z,101902.22
2023-06-03T18:14:12.245Z,101896.03
2023-06-03T18:16:41.965Z,101903.94
2023-06-03T18:19:14.317Z,101897.66
2023-06-03T18:21:46.832Z,101907.41
2023-06-03T18:24:16.574Z,101895.91
2023-06-03T18:26:46.430Z,101903.88
2023-06-03T18:29:16.075Z,101904.75
2023-06-03T18:31:45.770Z,101913.59
2023-06-03T18:34:20.730Z,101908.25
2023-06-03T18:36:50.478Z,101907.38
2023-06-03T18:39:20.321Z,101914.41
2023-06-03T18:41:50.018Z,101912.59
2023-06-03T18:44:20.595Z,101907.25
2023-06-03T18:46:50.320Z,101912.59
2023-06-03T18:49:22.619Z,101910.78
2023-06-03T18:51:52.331Z,101912.50
2023-06-03T18:54:22.015Z,101911.56
2023-06-03T18:56:51.822Z,101913.31
2023-06-03T18:59:21.497Z,101910.63
2023-06-03T19:01:51.260Z,101910.59
2023-06-03T19:04:23.895Z,101913.28
2023-06-03T19:06:53.620Z,101914.13
2023-06-03T19:09:23.292Z,101917.66
2023-06-03T19:11:52.963Z,101925.47
2023-06-03T19:14:23.762Z,101921.75
2023-06-03T19:16:53.499Z,101919.94
2023-06-03T19:19:26.064Z,101914.63
2023-06-03T19:21:55.740Z,101922.50
2023-06-03T19:24:25.455Z,101924.19
2023-06-03T19:26:55.154Z,101929.31
2023-06-03T19:29:24.826Z,101929.28
2023-06-03T19:31:54.542Z,101932.72
2023-06-03T19:34:26.884Z,101934.28
2023-06-03T19:36:56.547Z,101935.03
2023-06-03T19:39:26.330Z,101936.72
2023-06-03T19:41:56.033Z,101943.63
2023-06-03T19:44:25.878Z,101938.34
2023-06-03T19:46:56.338Z,101933.84
2023-06-03T19:49:28.768Z,101954.03
2023-06-03T19:51:58.439Z,101943.28
2023-06-03T19:54:28.135Z,101940.56
2023-06-03T19:56:57.861Z,101943.19
2023-06-03T19:59:27.526Z,101944.91
2023-06-03T20:01:57.278Z,101947.53
2023-06-03T20:04:29.531Z,101953.44
2023-06-03T20:06:59.369Z,101947.84
2023-06-03T20:09:29.258Z,101957.47
2023-06-03T20:11:58.930Z,101957.41
2023-06-03T20:14:28.637Z,101960.06
2023-06-03T20:16:58.421Z,101960.06
2023-06-03T20:19:30.741Z,101960.84
2023-06-03T20:22:00.541Z,101965.97
2023-06-03T20:24:30.271Z,101963.09
2023-06-03T20:26:59.933Z,101963.00
2023-06-03T20:33:51.685Z,101967.34
2023-06-03T20:36:26.469Z,101966.47
2023-06-03T20:38:56.292Z,101967.19
2023-06-03T20:41:27.341Z,101971.47
2023-06-03T20:43:58.066Z,101971.47
2023-06-03T20:46:28.243Z,101968.75
2023-06-03T20:48:58.228Z,101973.16
2023-06-03T20:51:30.847Z,101979.34
2023-06-03T20:54:01.603Z,101975.75
2023-06-03T20:56:31.485Z,101979.06
2023-06-03T20:59:01.327Z,101974.47
2023-06-03T21:01:31.415Z,101986.00
2023-06-03T21:04:01.635Z,101978.00
2023-06-03T21:06:34.259Z,101982.34
2023-06-03T21:09:04.039Z,101985.72
2023-06-03T21:11:33.776Z,101982.09
2023-06-03T21:14:03.693Z,101985.56
2023-06-03T21:16:33.558Z,101991.72
2023-06-03T21:19:03.364Z,101988.94
2023-06-03T21:21:36.070Z,101988.81
2023-06-03T21:24:05.899Z,101990.53
2023-06-03T21:26:35.835Z,101995.69
2023-06-03T21:29:07.817Z,101994.72
2023-06-03T21:31:37.710Z,101995.47
2023-06-03T21:34:07.484Z,101998.03
2023-06-03T21:36:39.971Z,101993.50
2023-06-03T21:39:09.920Z,101997.88
2023-06-03T21:41:39.749Z,101998.63
2023-06-03T21:44:09.778Z,102008.13
2023-06-03T21:46:39.652Z,102003.47
2023-06-03T21:49:09.497Z,102001.66
2023-06-03T21:51:42.124Z,102008.47
2023-06-03T21:54:12.089Z,102010.09
2023-06-03T21:56:41.973Z,102004.72
2023-06-03T21:59:12.634Z,102006.34
2023-06-03T22:01:43.701Z,102000.97
2023-06-03T22:04:13.723Z,102005.03
2023-06-03T22:06:46.335Z,102001.19
2023-06-03T22:09:17.338Z,102009.97
2023-06-03T22:11:47.486Z,102005.41
2023-06-03T22:14:17.474Z,102004.47
2023-06-03T22:16:47.484Z,101999.19
2023-06-03T22:19:17.513Z,102007.97
2023-06-03T22:21:51.391Z,102004.94
2023-06-03T22:24:21.354Z,102000.06
2023-06-03T22:26:58.738Z,102005.16
2023-06-03T22:29:30.284Z,102004.94
2023-06-03T22:32:00.254Z,102001.34
2023-06-03T22:34:30.343Z,101999.44
2023-06-03T22:37:03.236Z,102001.16
2023-06-03T22:39:37.404Z,102000.22
2023-06-03T22:42:25.007Z,101993.06
2023-06-03T22:51:27.653Z,102005.72
2023-06-03T22:54:00.247Z,102004.56
2023-06-03T22:56:30.166Z,102008.72
2023-06-03T22:59:00.462Z,102002.66
2023-06-03T23:01:30.476Z,102002.66
2023-06-03T23:04:00.688Z,102006.25
2023-06-03T23:06:30.767Z,102006.31
2023-06-03T23:09:03.314Z,102005.47
2023-06-03T23:11:34.381Z,102004.47
2023-06-03T23:14:04.296Z,102005.84
2023-06-03T23:16:34.352Z,102007.41
2023-06-03T23:19:04.402Z,102010.25
2023-06-03T23:21:34.374Z,102005.13
2023-06-03T23:24:08.172Z,102005.94
2023-06-03T23:26:38.318Z,101998.88
2023-06-03T23:29:08.286Z,102002.44
2023-06-03T23:31:38.328Z,102002.53
2023-06-03T23:34:08.437Z,102005.75
2023-06-03T23:36:38.369Z,102004.56
2023-06-03T23:39:10.954Z,102008.84
2023-06-03T23:41:41.070Z,102000.97
2023-06-03T23:44:11.212Z,101997.59
2023-06-03T23:46:41.147Z,101991.44
2023-06-03T23:49:11.127Z,101993.03
2023-06-03T23:51:41.096Z,101995.47
2023-06-03T23:54:13.688Z,101996.28
2023-06-03T23:56:43.608Z,101989.16
2023-06-03T23:59:13.523Z,101988.31
